Time;durP1;ratioP1;P1;durP2;ratioP2;P2;SDS_P1;SDS_P2;PMS_P1;PMS_P2;Temp;Humidity;BMP_temperature;BMP_pressure;BME280_temperature;BME280_humidity;BME280_pressure;Samples;Min_cycle;Max_cycle;Signal;HPM_P1;HPM_P2
2023/06/20 00:01:20;;;;;;;8.95;4.28;;;22.40;92.80;;;;;;5073325;28;20035;-52
2023/06/20 00:03:46;;;;;;;8.18;4.38;;;22.40;93.10;;;;;;5073676;28;20111;-53
2023/06/20 00:06:12;;;;;;;6.85;4.10;;;22.40;92.80;;;;;;5073630;28;20035;-53
2023/06/20 00:08:38;;;;;;;6.55;4.25;;;22.40;93.00;;;;;;5073367;28;20510;-54
2023/06/20 00:11:04;;;;;;;6.35;4.30;;;22.40;92.80;;;;;;5072912;28;20021;-54
2023/06/20 00:13:29;;;;;;;6.45;3.78;;;22.40;92.90;;;;;;5072862;28;20488;-53
2023/06/20 00:15:57;;;;;;;8.27;4.10;;;22.40;92.90;;;;;;5073296;28;20029;-51
2023/06/20 00:18:24;;;;;;;5.95;3.42;;;22.40;93.00;;;;;;5073240;28;20056;-54
2023/06/20 00:20:53;;;;;;;8.32;4.13;;;22.40;93.00;;;;;;5072869;28;20056;-52
2023/06/20 00:23:21;;;;;;;6.95;4.07;;;22.40;93.00;;;;;;5073134;28;20033;-53
2023/06/20 00:25:47;;;;;;;7.13;4.00;;;22.50;93.10;;;;;;5072894;28;20103;-54
2023/06/20 00:28:16;;;;;;;7.55;4.00;;;22.40;93.10;;;;;;5073214;28;20032;-54
2023/06/20 00:30:42;;;;;;;6.25;3.58;;;22.50;93.00;;;;;;5073144;28;20036;-54
2023/06/20 00:33:07;;;;;;;6.30;3.92;;;22.50;93.00;;;;;;5073208;28;20044;-55
2023/06/20 00:35:33;;;;;;;6.38;3.45;;;22.60;93.00;;;;;;5073032;28;20032;-54
2023/06/20 00:38:01;;;;;;;6.13;3.83;;;22.60;92.90;;;;;;5072982;28;20035;-55
2023/06/20 00:40:27;;;;;;;6.38;3.60;;;22.60;93.00;;;;;;5054705;28;20036;-53
2023/06/20 00:42:53;;;;;;;5.85;3.60;;;22.60;92.90;;;;;;5055064;28;20028;-52
2023/06/20 00:45:27;;;;;;;6.72;3.88;;;22.70;92.90;;;;;;5073081;28;20627;-53
2023/06/20 00:47:53;;;;;;;6.22;3.45;;;22.70;92.90;;;;;;5054751;28;20053;-54
2023/06/20 00:50:19;;;;;;;5.15;3.58;;;22.70;92.90;;;;;;5073047;28;20028;-54
2023/06/20 00:52:47;;;;;;;6.85;3.78;;;22.70;92.90;;;;;;5073337;28;20036;-52
2023/06/20 00:55:13;;;;;;;7.32;4.22;;;22.70;92.90;;;;;;5054733;28;20024;-52
2023/06/20 00:57:42;;;;;;;5.82;3.30;;;22.70;92.80;;;;;;5073051;28;20039;-51
2023/06/20 01:00:12;;;;;;;6.00;3.67;;;22.70;92.90;;;;;;5072935;28;20093;-54
2023/06/20 01:02:38;;;;;;;5.70;3.42;;;22.70;93.00;;;;;;5072797;28;20020;-52
2023/06/20 01:05:04;;;;;;;6.63;3.40;;;22.70;92.90;;;;;;5054918;28;20031;-49
2023/06/20 01:07:49;;;;;;;4.78;3.15;;;22.70;92.90;;;;;;5072710;28;20021;-52
2023/06/20 01:10:29;;;;;;;6.70;3.55;;;22.70;92.90;;;;;;5072679;28;20465;-52
2023/06/20 01:13:05;;;;;;;5.80;3.28;;;22.80;93.00;;;;;;5055058;28;20037;-52
2023/06/20 01:15:54;;;;;;;5.78;3.63;;;22.70;93.00;;;;;;5072940;28;20507;-50
2023/06/20 01:18:30;;;;;;;10.27;3.97;;;22.90;92.90;;;;;;5017901;28;20083;-50
2023/06/20 01:21:07;;;;;;;5.57;3.33;;;23.00;92.70;;;;;;5072858;28;20021;-54
2023/06/20 01:23:45;;;;;;;4.60;3.10;;;23.00;92.90;;;;;;5055084;28;20025;-53
2023/06/20 01:26:30;;;;;;;5.47;3.40;;;22.90;93.00;;;;;;5057272;28;20127;-52
2023/06/20 01:29:15;;;;;;;5.30;3.45;;;22.90;93.30;;;;;;5042007;28;20029;-53
2023/06/20 01:31:49;;;;;;;5.05;3.17;;;22.80;93.30;;;;;;5058834;28;20458;-50
2023/06/20 01:34:27;;;;;;;5.75;3.20;;;22.70;93.40;;;;;;5058831;28;20032;-51
2023/06/20 01:36:55;;;;;;;6.35;3.47;;;22.70;93.60;;;;;;5058847;28;20029;-50
2023/06/20 01:39:33;;;;;;;6.15;2.95;;;22.60;93.90;;;;;;5076776;28;20086;-52
2023/06/20 01:42:02;;;;;;;5.32;2.85;;;22.60;93.70;;;;;;5059057;28;20029;-52
2023/06/20 01:44:30;;;;;;;5.70;2.75;;;22.70;93.70;;;;;;5076812;28;20025;-51
2023/06/20 01:46:58;;;;;;;5.60;3.50;;;22.60;93.70;;;;;;5077398;28;20034;-50
2023/06/20 01:49:25;;;;;;;3.92;2.80;;;22.60;94.00;;;;;;5076580;28;20049;-52
2023/06/20 01:51:55;;;;;;;5.25;3.10;;;22.50;94.20;;;;;;5057411;28;20056;-52
2023/06/20 01:54:29;;;;;;;6.43;3.50;;;22.50;94.50;;;;;;5058150;28;20039;-52
2023/06/20 01:56:59;;;;;;;5.35;2.92;;;22.40;94.80;;;;;;5057983;28;20039;-53
2023/06/20 01:59:26;;;;;;;5.03;3.17;;;22.30;95.00;;;;;;5058192;28;20052;-53
2023/06/20 02:01:54;;;;;;;6.80;3.30;;;22.20;95.20;;;;;;5057697;28;20413;-54
2023/06/20 02:04:22;;;;;;;5.20;3.20;;;22.20;95.20;;;;;;5076365;28;20020;-54
2023/06/20 02:06:49;;;;;;;4.78;2.83;;;22.20;95.50;;;;;;5058012;28;20032;-53
2023/06/20 02:09:16;;;;;;;4.68;2.45;;;22.10;95.70;;;;;;5057528;28;20028;-51
2023/06/20 02:11:43;;;;;;;5.10;2.90;;;22.10;96.00;;;;;;5075763;28;20036;-52
2023/06/20 02:14:10;;;;;;;7.35;3.30;;;22.00;96.20;;;;;;5057494;28;20040;-52
2023/06/20 02:16:38;;;;;;;6.35;3.42;;;22.00;96.40;;;;;;5057476;28;20111;-53
2023/06/20 02:19:06;;;;;;;4.00;2.45;;;22.00;96.80;;;;;;5075121;28;20056;-54
2023/06/20 02:21:36;;;;;;;5.63;3.20;;;21.90;96.60;;;;;;5057324;28;20032;-53
2023/06/20 02:24:05;;;;;;;6.20;2.95;;;21.90;96.70;;;;;;5075277;28;20031;-51
2023/06/20 02:26:34;;;;;;;5.30;2.85;;;21.90;97.00;;;;;;5075391;28;20020;-52
2023/06/20 02:29:05;;;;;;;4.78;2.97;;;21.90;96.90;;;;;;5075583;28;20078;-53
2023/06/20 02:31:34;;;;;;;5.40;3.28;;;21.80;96.90;;;;;;5075125;28;20054;-54
2023/06/20 02:34:04;;;;;;;6.50;3.33;;;21.90;97.00;;;;;;5057165;28;20028;-54
2023/06/20 02:36:31;;;;;;;4.57;2.90;;;21.80;97.00;;;;;;5056529;28;20037;-53
2023/06/20 02:38:58;;;;;;;5.68;3.17;;;21.90;97.00;;;;;;5057006;28;20036;-54
2023/06/20 02:41:24;;;;;;;4.70;2.78;;;21.80;97.10;;;;;;5074751;28;20052;-54
2023/06/20 02:43:50;;;;;;;5.13;2.90;;;21.80;97.20;;;;;;5056857;28;20033;-53
2023/06/20 02:46:35;;;;;;;5.55;3.47;;;21.80;97.30;;;;;;5056448;28;20113;-52
2023/06/20 02:49:26;;;;;;;3.65;2.45;;;21.80;97.40;;;;;;5055831;28;20044;-52
2023/06/20 02:52:33;;;;;;;5.53;2.90;;;21.70;97.50;;;;;;5073205;28;20052;-52
2023/06/20 02:55:17;;;;;;;5.40;3.20;;;21.70;97.60;;;;;;5029497;28;20489;-52
2023/06/20 02:57:53;;;;;;;6.40;3.30;;;21.70;97.70;;;;;;5056261;28;20029;-52
2023/06/20 03:00:20;;;;;;;6.40;3.22;;;21.80;97.60;;;;;;5074260;28;20028;-53
2023/06/20 03:03:11;;;;;;;5.72;3.10;;;21.80;97.60;;;;;;5073052;28;20033;-52
2023/06/20 03:05:44;;;;;;;4.53;2.63;;;21.80;97.60;;;;;;5062993;28;20035;-53
2023/06/20 03:08:17;;;;;;;5.85;3.30;;;21.80;97.70;;;;;;5056187;28;20020;-50
2023/06/20 03:10:43;;;;;;;5.65;2.70;;;21.80;97.70;;;;;;5055902;28;20173;-49
2023/06/20 03:13:15;;;;;;;5.75;2.90;;;21.80;97.90;;;;;;5074242;28;20103;-49
2023/06/20 03:15:41;;;;;;;4.90;2.65;;;21.80;97.90;;;;;;5056548;28;20487;-48
2023/06/20 03:18:08;;;;;;;4.78;2.80;;;21.80;98.00;;;;;;5056221;28;20029;-49
2023/06/20 03:20:37;;;;;;;4.07;2.55;;;21.80;98.00;;;;;;5055926;28;20033;-51
2023/06/20 03:23:03;;;;;;;4.88;2.70;;;21.70;98.10;;;;;;5056477;28;20021;-48
2023/06/20 03:25:30;;;;;;;6.05;3.03;;;21.70;98.30;;;;;;5056147;28;20021;-50
2023/06/20 03:27:56;;;;;;;5.45;2.97;;;21.70;98.40;;;;;;5073471;28;20365;-49
2023/06/20 03:30:22;;;;;;;7.10;3.22;;;21.80;98.40;;;;;;5055511;28;20119;-49
2023/06/20 03:32:50;;;;;;;5.15;3.03;;;21.80;98.50;;;;;;5055451;28;20489;-49
2023/06/20 03:35:15;;;;;;;5.55;3.45;;;21.80;98.60;;;;;;5071788;28;20048;-49
2023/06/20 03:37:43;;;;;;;4.53;2.67;;;21.70;98.70;;;;;;5053709;28;20028;-49
2023/06/20 03:40:10;;;;;;;5.45;2.90;;;21.70;98.90;;;;;;5053537;28;20036;-48
2023/06/20 03:42:38;;;;;;;;;;;21.60;99.10;;;;;;5051112;28;20509;-49
2023/06/20 03:45:05;;;;;;;5.85;2.90;;;21.70;99.30;;;;;;5036955;28;19908;-49
2023/06/20 03:47:32;;;;;;;5.93;2.85;;;21.60;99.70;;;;;;5049202;28;20028;-51
2023/06/20 03:49:58;;;;;;;6.03;2.90;;;21.60;99.90;;;;;;5042390;28;20098;-53
2023/06/20 03:52:23;;;;;;;6.05;3.15;;;21.50;99.90;;;;;;5067401;28;20413;-49
2023/06/20 03:54:49;;;;;;;4.93;2.90;;;21.60;99.90;;;;;;5070874;28;20024;-54
2023/06/20 03:57:15;;;;;;;6.50;3.22;;;21.60;99.90;;;;;;5048298;28;20087;-51
2023/06/20 03:59:41;;;;;;;8.50;3.65;;;21.50;99.90;;;;;;5044012;28;20020;-51
2023/06/20 04:02:06;;;;;;;5.75;3.13;;;21.40;99.90;;;;;;5042227;28;20075;-49
2023/06/20 04:04:32;;;;;;;7.30;3.05;;;21.40;99.90;;;;;;5042314;28;20392;-53
2023/06/20 04:06:58;;;;;;;6.63;3.53;;;21.40;99.90;;;;;;5069957;28;20016;-54
2023/06/20 04:09:26;;;;;;;4.80;2.90;;;21.40;99.90;;;;;;5052788;28;20033;-54
2023/06/20 04:11:52;;;;;;;7.47;3.28;;;21.40;99.90;;;;;;5063921;28;20020;-49
2023/06/20 04:14:18;;;;;;;5.95;3.00;;;21.30;99.90;;;;;;5046841;28;20374;-50
2023/06/20 04:16:44;;;;;;;5.32;3.33;;;21.30;99.90;;;;;;5063270;28;20032;-52
2023/06/20 04:19:10;;;;;;;9.48;3.72;;;21.30;99.90;;;;;;5044670;28;20044;-49
2023/06/20 04:21:36;;;;;;;5.03;3.10;;;21.30;99.90;;;;;;5042076;28;20029;-53
2023/06/20 04:24:02;;;;;;;5.90;3.35;;;21.30;99.90;;;;;;5043544;28;20021;-53
2023/06/20 04:26:29;;;;;;;6.25;3.58;;;21.20;99.90;;;;;;5046886;28;20036;-54
2023/06/20 04:28:56;;;;;;;6.18;3.10;;;21.20;99.90;;;;;;5055095;28;20024;-50
2023/06/20 04:31:22;;;;;;;5.75;3.40;;;21.20;99.90;;;;;;5059794;28;20029;-52
2023/06/20 04:33:48;;;;;;;5.78;3.50;;;21.20;99.90;;;;;;5049175;28;20546;-49
2023/06/20 04:36:14;;;;;;;4.78;2.90;;;21.20;99.90;;;;;;5059691;28;20036;-53
2023/06/20 04:38:44;;;;;;;6.90;3.63;;;21.20;99.90;;;;;;5045913;28;20025;-52
2023/06/20 04:41:11;;;;;;;6.78;3.50;;;21.20;99.90;;;;;;5045076;28;20029;-52
2023/06/20 04:43:37;;;;;;;5.53;3.10;;;21.10;99.90;;;;;;5046875;28;20025;-53
2023/06/20 04:46:04;;;;;;;7.20;3.85;;;21.20;99.90;;;;;;5056783;28;20021;-52
2023/06/20 04:48:36;;;;;;;5.43;3.33;;;21.20;99.90;;;;;;5050588;28;20024;-50
2023/06/20 04:51:02;;;;;;;6.25;3.15;;;21.20;99.90;;;;;;5037153;28;20461;-50
2023/06/20 04:53:28;;;;;;;5.70;3.03;;;21.20;99.90;;;;;;5042029;28;20740;-54
2023/06/20 04:55:55;;;;;;;5.30;3.13;;;21.10;99.90;;;;;;5066068;28;20092;-55
2023/06/20 04:58:20;;;;;;;7.63;4.05;;;21.10;99.90;;;;;;5063934;28;20048;-53
2023/06/20 05:00:47;;;;;;;5.47;3.30;;;21.10;99.90;;;;;;5070455;28;20486;-54
2023/06/20 05:03:13;;;;;;;5.60;2.95;;;21.10;99.90;;;;;;5046517;28;20354;-53
2023/06/20 05:05:40;;;;;;;6.78;3.50;;;21.00;99.90;;;;;;5046236;28;20024;-53
2023/06/20 05:08:06;;;;;;;4.97;3.28;;;21.00;99.90;;;;;;5044401;28;20044;-54
2023/06/20 05:10:31;;;;;;;6.70;3.65;;;21.00;99.90;;;;;;5067771;28;20472;-53
2023/06/20 05:12:57;;;;;;;7.43;3.30;;;21.10;99.90;;;;;;5067231;28;20481;-51
2023/06/20 05:15:23;;;;;;;9.38;4.28;;;21.20;99.90;;;;;;5044343;28;20032;-50
2023/06/20 05:17:52;;;;;;;5.72;3.20;;;21.20;99.90;;;;;;5048911;28;20115;-51
2023/06/20 05:20:19;;;;;;;8.40;3.63;;;21.20;99.90;;;;;;5067011;28;20035;-54
2023/06/20 05:22:45;;;;;;;7.50;3.78;;;21.20;99.90;;;;;;5069707;28;20025;-51
2023/06/20 05:25:10;;;;;;;8.45;4.20;;;21.20;99.90;;;;;;5041632;28;20568;-52
2023/06/20 05:27:37;;;;;;;7.10;3.67;;;21.30;99.90;;;;;;5064374;28;20033;-54
2023/06/20 05:30:03;;;;;;;8.18;4.40;;;21.30;99.90;;;;;;5071728;28;20028;-51
2023/06/20 05:32:29;;;;;;;11.60;5.03;;;21.30;99.90;;;;;;5057267;28;20020;-50
2023/06/20 05:34:54;;;;;;;13.25;5.05;;;21.30;99.90;;;;;;5066493;28;20217;-54
2023/06/20 05:37:20;;;;;;;8.98;4.05;;;21.30;99.90;;;;;;5064502;28;20028;-52
2023/06/20 05:39:46;;;;;;;6.95;3.20;;;21.40;99.90;;;;;;5065133;28;20455;-53
2023/06/20 05:42:11;;;;;;;6.88;3.47;;;21.40;99.90;;;;;;5068618;28;20039;-48
2023/06/20 05:44:37;;;;;;;7.28;4.50;;;21.40;99.90;;;;;;5059291;28;20021;-53
2023/06/20 05:47:06;;;;;;;6.97;3.47;;;21.40;99.90;;;;;;5047909;28;20021;-49
2023/06/20 05:49:32;;;;;;;;;;;21.40;99.90;;;;;;5063235;28;20025;-50
2023/06/20 05:51:58;;;;;;;6.07;3.33;;;21.40;99.90;;;;;;5057997;28;20010;-51
2023/06/20 05:54:24;;;;;;;6.40;3.53;;;21.40;99.90;;;;;;5062005;28;20068;-53
2023/06/20 05:56:51;;;;;;;6.25;4.03;;;21.50;99.90;;;;;;5064065;28;20024;-51
2023/06/20 05:59:17;;;;;;;4.38;2.80;;;21.50;99.90;;;;;;5047402;28;20036;-51
2023/06/20 06:01:45;;;;;;;6.88;2.92;;;21.50;99.90;;;;;;5061607;28;20041;-51
2023/06/20 06:04:11;;;;;;;4.97;2.85;;;21.50;99.90;;;;;;5067589;28;20085;-51
2023/06/20 06:06:37;;;;;;;4.60;2.70;;;21.60;99.90;;;;;;5067830;28;20635;-51
2023/06/20 06:09:03;;;;;;;5.22;3.15;;;21.60;99.90;;;;;;5067776;28;20583;-49
2023/06/20 06:11:29;;;;;;;4.90;2.38;;;21.60;99.90;;;;;;5058522;28;20028;-50
2023/06/20 06:13:55;;;;;;;8.82;5.13;;;21.50;99.90;;;;;;5068555;28;20543;-49
2023/06/20 06:16:21;;;;;;;7.35;3.40;;;21.60;99.90;;;;;;5069138;28;20042;-51
2023/06/20 06:18:47;;;;;;;7.40;3.80;;;21.60;99.90;;;;;;5060673;28;20025;-50
2023/06/20 06:21:13;;;;;;;6.30;3.20;;;21.70;99.90;;;;;;5065309;28;20028;-53
2023/06/20 06:23:39;;;;;;;6.15;3.20;;;21.70;99.90;;;;;;5063403;28;20032;-52
2023/06/20 06:26:05;;;;;;;7.93;4.32;;;21.80;99.90;;;;;;5065733;28;20012;-52
2023/06/20 06:28:30;;;;;;;6.90;3.60;;;21.90;99.90;;;;;;5071462;28;20397;-52
2023/06/20 06:31:02;;;;;;;5.68;3.33;;;21.90;99.90;;;;;;5059775;28;20036;-53
2023/06/20 06:33:28;;;;;;;7.80;3.60;;;22.00;99.90;;;;;;5061581;28;20032;-52
2023/06/20 06:35:55;;;;;;;7.68;3.55;;;22.00;99.90;;;;;;5066684;28;20027;-52
2023/06/20 06:38:22;;;;;;;6.03;3.30;;;22.00;99.90;;;;;;5064705;28;20473;-52
2023/06/20 06:40:48;;;;;;;5.00;2.97;;;22.00;99.90;;;;;;5062745;28;20021;-49
2023/06/20 06:43:14;;;;;;;6.88;3.70;;;22.00;99.90;;;;;;5067678;28;20028;-49
2023/06/20 06:45:40;;;;;;;4.97;2.97;;;22.10;99.90;;;;;;5047039;28;20021;-50
2023/06/20 06:48:06;;;;;;;7.13;4.15;;;22.20;99.90;;;;;;5066782;28;20048;-48
2023/06/20 06:50:32;;;;;;;9.85;5.45;;;22.30;99.90;;;;;;5059576;28;20122;-49
2023/06/20 06:52:58;;;;;;;8.50;4.65;;;22.40;99.90;;;;;;5062103;28;20027;-53
2023/06/20 06:55:24;;;;;;;8.40;4.75;;;22.60;99.90;;;;;;5059427;28;20485;-49
2023/06/20 06:57:49;;;;;;;7.53;3.22;;;22.70;99.90;;;;;;5056493;28;20036;-55
2023/06/20 07:00:16;;;;;;;5.90;3.35;;;22.80;99.90;;;;;;5066838;28;20036;-49
2023/06/20 07:02:43;;;;;;;4.30;2.70;;;23.00;99.90;;;;;;5074665;28;20024;-54
2023/06/20 07:05:09;;;;;;;6.05;3.10;;;23.10;99.90;;;;;;5061645;28;20389;-54
2023/06/20 07:07:34;;;;;;;5.88;3.28;;;23.30;99.90;;;;;;5063671;28;20078;-54
2023/06/20 07:10:00;;;;;;;5.78;3.05;;;23.50;99.90;;;;;;5071755;28;20016;-53
2023/06/20 07:12:26;;;;;;;6.22;3.75;;;23.50;99.90;;;;;;5063810;28;20064;-54
2023/06/20 07:14:56;;;;;;;5.30;2.88;;;23.60;99.90;;;;;;5059048;28;20382;-49
2023/06/20 07:17:23;;;;;;;6.50;3.53;;;23.60;99.90;;;;;;5061648;28;20033;-50
2023/06/20 07:19:50;;;;;;;4.93;3.15;;;23.70;99.90;;;;;;5063590;28;20428;-53
2023/06/20 07:22:15;;;;;;;6.38;3.33;;;24.00;99.90;;;;;;5064331;28;20043;-52
2023/06/20 07:24:41;;;;;;;6.85;4.03;;;24.20;99.90;;;;;;5060622;28;20016;-54
2023/06/20 07:27:07;;;;;;;6.28;4.18;;;24.40;99.90;;;;;;5068580;28;20394;-54
2023/06/20 07:29:32;;;;;;;7.45;4.68;;;24.50;99.90;;;;;;5059712;28;20077;-52
2023/06/20 07:31:58;;;;;;;6.47;3.92;;;24.80;99.90;;;;;;5063971;28;20031;-53
2023/06/20 07:34:24;;;;;;;6.55;3.22;;;25.10;99.90;;;;;;5061975;28;20032;-54
2023/06/20 07:36:49;;;;;;;5.43;3.70;;;25.30;99.90;;;;;;5063847;28;20601;-51
2023/06/20 07:39:15;;;;;;;5.53;3.50;;;25.50;99.00;;;;;;5069358;28;20113;-51
2023/06/20 07:41:41;;;;;;;8.00;3.65;;;25.50;98.80;;;;;;5067774;28;20024;-51
2023/06/20 07:44:08;;;;;;;4.57;3.20;;;25.50;98.80;;;;;;5062215;28;20028;-52
2023/06/20 07:46:33;;;;;;;6.68;3.75;;;25.50;99.00;;;;;;5042493;28;20025;-51
2023/06/20 07:48:59;;;;;;;6.47;3.95;;;25.50;98.70;;;;;;5066759;28;20037;-51
2023/06/20 07:51:25;;;;;;;6.53;3.42;;;25.50;98.80;;;;;;5064578;28;20032;-49
2023/06/20 07:53:51;;;;;;;5.32;3.67;;;25.50;98.60;;;;;;5071454;28;20035;-51
2023/06/20 07:56:16;;;;;;;6.63;3.85;;;25.50;98.50;;;;;;5065268;28;20036;-49
2023/06/20 07:58:44;;;;;;;4.70;3.00;;;25.50;98.40;;;;;;5055867;28;20036;-52
2023/06/20 08:01:12;;;;;;;4.30;2.88;;;25.30;98.30;;;;;;5058155;28;20044;-49
2023/06/20 08:03:38;;;;;;;6.80;3.92;;;25.30;98.60;;;;;;5060881;28;20082;-50
2023/06/20 08:06:04;;;;;;;5.10;3.33;;;25.30;98.70;;;;;;5066895;28;20024;-51
2023/06/20 08:08:29;;;;;;;9.32;4.18;;;25.30;98.20;;;;;;5054029;28;20095;-52
2023/06/20 08:10:55;;;;;;;5.68;3.33;;;25.30;98.30;;;;;;5071099;28;20024;-55
2023/06/20 08:13:21;;;;;;;6.63;3.28;;;25.40;98.20;;;;;;5056665;28;20032;-50
2023/06/20 08:15:47;;;;;;;5.57;3.45;;;25.50;98.30;;;;;;5057339;28;20067;-50
2023/06/20 08:18:12;;;;;;;6.40;2.97;;;25.50;97.90;;;;;;5068550;28;20154;-51
2023/06/20 08:20:38;;;;;;;4.43;3.10;;;25.30;98.40;;;;;;5065741;28;20028;-53
2023/06/20 08:23:04;;;;;;;4.80;3.30;;;25.30;98.70;;;;;;5068104;28;20039;-54
2023/06/20 08:25:29;;;;;;;6.10;3.35;;;25.20;98.70;;;;;;5062458;28;20051;-53
2023/06/20 08:27:55;;;;;;;5.38;3.10;;;25.20;98.40;;;;;;5061370;28;20021;-54
2023/06/20 08:30:21;;;;;;;5.13;3.08;;;25.20;98.10;;;;;;5058493;28;20033;-53
2023/06/20 08:32:47;;;;;;;6.13;3.33;;;25.30;98.10;;;;;;5042107;28;20033;-54
2023/06/20 08:35:13;;;;;;;5.55;2.80;;;25.40;97.90;;;;;;5065641;28;20029;-54
2023/06/20 08:37:40;;;;;;;7.03;3.55;;;25.50;98.50;;;;;;5063784;28;20029;-54
2023/06/20 08:40:10;;;;;;;4.90;2.90;;;25.70;97.80;;;;;;5066237;28;20024;-54
2023/06/20 08:42:35;;;;;;;7.22;3.60;;;25.90;97.30;;;;;;5061954;28;20020;-52
2023/06/20 08:45:02;;;;;;;4.82;3.30;;;25.90;97.30;;;;;;5064416;28;20522;-52
2023/06/20 08:47:28;;;;;;;5.25;3.70;;;25.90;97.30;;;;;;5060788;28;20025;-51
2023/06/20 08:49:54;;;;;;;6.38;3.40;;;25.80;97.30;;;;;;5058185;28;20030;-51
2023/06/20 08:52:27;;;;;;;5.15;3.40;;;25.80;97.50;;;;;;5068134;28;20036;-53
2023/06/20 08:54:53;;;;;;;4.43;3.03;;;25.80;97.00;;;;;;5063209;28;20134;-54
2023/06/20 08:57:20;;;;;;;6.28;3.35;;;25.90;96.80;;;;;;5063580;28;20032;-52
2023/06/20 08:59:46;;;;;;;4.47;3.00;;;26.00;96.80;;;;;;5061956;28;20043;-52
2023/06/20 09:02:12;;;;;;;4.35;2.92;;;26.20;96.30;;;;;;5062874;28;20037;-51
2023/06/20 09:04:38;;;;;;;5.93;3.05;;;26.30;95.80;;;;;;5052894;28;20042;-54
2023/06/20 09:07:32;;;;;;;4.55;3.22;;;26.40;95.20;;;;;;5066600;28;20025;-55
2023/06/20 09:10:01;;;;;;;5.30;3.67;;;26.40;95.00;;;;;;5057187;28;20017;-55
2023/06/20 09:12:26;;;;;;;5.47;3.22;;;26.50;95.40;;;;;;5062021;28;20028;-53
2023/06/20 09:14:52;;;;;;;4.90;2.88;;;26.50;95.20;;;;;;5064107;28;20485;-54
2023/06/20 09:17:21;;;;;;;4.70;3.03;;;26.70;94.80;;;;;;5066706;28;20075;-54
2023/06/20 09:19:47;;;;;;;6.10;3.03;;;26.70;95.10;;;;;;5066456;28;20442;-55
2023/06/20 09:22:17;;;;;;;6.50;3.60;;;26.70;94.70;;;;;;5066405;28;20027;-55
2023/06/20 09:24:44;;;;;;;3.55;2.53;;;26.70;94.40;;;;;;5061607;28;20053;-52
2023/06/20 09:27:11;;;;;;;3.55;2.63;;;26.80;94.50;;;;;;5064442;28;20400;-54
2023/06/20 09:30:00;;;;;;;3.65;2.38;;;26.80;94.90;;;;;;5057957;28;20047;-53
2023/06/20 09:32:26;;;;;;;3.63;2.70;;;27.00;94.40;;;;;;5063666;28;20032;-54
2023/06/20 09:34:52;;;;;;;4.20;2.80;;;27.10;93.90;;;;;;5065162;28;20593;-55
2023/06/20 09:37:18;;;;;;;7.25;3.70;;;27.10;93.90;;;;;;5056966;28;20053;-54
2023/06/20 09:39:44;;;;;;;5.07;3.22;;;27.10;94.20;;;;;;5058523;28;20078;-54
2023/06/20 09:42:13;;;;;;;5.32;3.28;;;27.10;94.00;;;;;;5067005;28;20065;-49
2023/06/20 09:44:42;;;;;;;4.93;3.40;;;27.20;93.80;;;;;;5058187;28;20021;-53
2023/06/20 09:47:08;;;;;;;;;;;27.20;93.90;;;;;;5062747;28;20082;-52
2023/06/20 09:49:40;;;;;;;4.50;2.88;;;27.30;93.60;;;;;;5067241;28;20175;-51
2023/06/20 09:52:14;;;;;;;4.32;2.70;;;27.30;93.10;;;;;;5070622;28;20051;-55
2023/06/20 09:55:02;;;;;;;5.10;3.33;;;27.30;93.20;;;;;;5064546;28;20134;-52
2023/06/20 09:57:49;;;;;;;4.07;2.42;;;27.40;92.60;;;;;;5066661;28;20052;-53
2023/06/20 10:00:17;;;;;;;5.20;2.83;;;27.40;92.60;;;;;;5066943;28;20036;-51
2023/06/20 10:02:47;;;;;;;3.42;2.60;;;27.50;92.90;;;;;;5068546;28;20528;-53
2023/06/20 10:05:15;;;;;;;5.47;2.70;;;27.50;93.00;;;;;;5067846;28;20334;-53
2023/06/20 10:07:43;;;;;;;6.20;3.25;;;27.60;92.80;;;;;;5058641;28;20482;-54
2023/06/20 10:10:13;;;;;;;3.95;2.90;;;27.80;92.50;;;;;;5068467;28;20032;-55
2023/06/20 10:12:41;;;;;;;3.92;2.97;;;27.60;92.80;;;;;;5061550;28;20588;-53
2023/06/20 10:15:09;;;;;;;4.60;2.85;;;27.70;93.00;;;;;;5066251;28;20029;-54
2023/06/20 10:17:39;;;;;;;8.45;3.03;;;27.90;92.60;;;;;;5054301;28;20497;-54
2023/06/20 10:20:07;;;;;;;5.32;2.90;;;28.00;92.00;;;;;;5057401;28;20398;-54
2023/06/20 10:22:38;;;;;;;3.72;2.47;;;28.10;91.80;;;;;;5065078;28;20357;-53
2023/06/20 10:25:12;;;;;;;4.40;2.92;;;28.20;91.50;;;;;;5062244;28;20091;-54
2023/06/20 10:27:41;;;;;;;5.90;3.40;;;28.10;91.60;;;;;;5056545;28;20436;-53
2023/06/20 10:30:08;;;;;;;4.35;2.50;;;28.10;91.40;;;;;;5065464;28;20024;-54
2023/06/20 10:32:34;;;;;;;4.37;2.57;;;28.10;91.10;;;;;;5056837;28;20504;-53
2023/06/20 10:35:15;;;;;;;4.72;3.30;;;28.10;90.80;;;;;;5064286;28;20435;-53
2023/06/20 10:37:41;;;;;;;3.65;2.80;;;28.00;91.50;;;;;;5064190;28;20036;-52
2023/06/20 10:40:10;;;;;;;4.00;2.90;;;27.80;91.80;;;;;;5053157;28;20035;-54
2023/06/20 10:42:43;;;;;;;4.72;2.45;;;27.80;92.00;;;;;;5063937;28;20417;-55
2023/06/20 10:45:22;;;;;;;4.18;2.50;;;28.00;91.20;;;;;;5057854;28;20033;-55
2023/06/20 10:47:49;;;;;;;4.35;2.70;;;28.20;90.50;;;;;;5068470;28;20029;-52
2023/06/20 10:50:15;;;;;;;5.53;3.28;;;28.50;90.10;;;;;;5059951;28;20036;-53
2023/06/20 10:52:42;;;;;;;3.35;2.60;;;28.40;90.40;;;;;;5063386;28;20174;-53
2023/06/20 10:55:22;;;;;;;4.28;2.75;;;28.30;90.90;;;;;;5072288;28;20032;-54
2023/06/20 10:57:49;;;;;;;3.97;2.70;;;28.40;91.30;;;;;;5068390;28;20452;-55
2023/06/20 11:00:19;;;;;;;5.43;3.30;;;28.50;90.30;;;;;;5059320;28;20028;-51
2023/06/20 11:02:50;;;;;;;5.82;3.17;;;28.60;90.30;;;;;;5070527;28;20024;-54
2023/06/20 11:05:16;;;;;;;4.97;3.03;;;28.60;90.50;;;;;;5065106;28;20032;-50
2023/06/20 11:07:55;;;;;;;4.93;3.65;;;28.60;91.50;;;;;;5058238;28;20434;-54
2023/06/20 11:10:25;;;;;;;3.83;2.95;;;28.70;90.60;;;;;;5066858;28;20037;-52
2023/06/20 11:12:51;;;;;;;6.70;3.92;;;28.70;89.70;;;;;;5066185;28;20017;-53
2023/06/20 11:15:28;;;;;;;4.95;3.05;;;28.90;89.40;;;;;;5067085;28;20020;-49
2023/06/20 11:17:56;;;;;;;4.28;2.90;;;28.90;88.90;;;;;;5069071;28;20074;-52
2023/06/20 11:20:24;;;;;;;3.97;2.58;;;29.10;88.50;;;;;;5060273;28;20458;-52
2023/06/20 11:22:51;;;;;;;;;;;29.10;87.80;;;;;;5067395;28;20081;-52
2023/06/20 11:25:30;;;;;;;6.07;3.87;;;29.20;88.40;;;;;;5067626;28;19955;-52
2023/06/20 11:28:10;;;;;;;4.10;3.13;;;29.10;88.10;;;;;;5065401;28;20856;-54
2023/06/20 11:30:39;;;;;;;6.07;3.83;;;29.10;87.90;;;;;;5065636;28;20042;-55
2023/06/20 11:33:06;;;;;;;4.80;3.13;;;29.10;88.50;;;;;;5068208;28;20124;-51
2023/06/20 11:35:43;;;;;;;6.35;3.10;;;29.30;87.80;;;;;;5067622;28;20107;-51
2023/06/20 11:38:11;;;;;;;4.22;2.85;;;29.30;87.60;;;;;;5069976;28;20397;-48
2023/06/20 11:40:38;;;;;;;4.88;3.03;;;29.30;87.40;;;;;;5065078;28;20037;-49
2023/06/20 11:43:04;;;;;;;4.75;3.28;;;29.30;87.70;;;;;;5065849;28;20029;-54
2023/06/20 11:45:30;;;;;;;4.80;2.90;;;29.40;88.00;;;;;;5065480;28;20402;-54
2023/06/20 11:48:12;;;;;;;5.55;3.45;;;29.60;87.70;;;;;;5065051;28;20035;-52
2023/06/20 11:50:41;;;;;;;4.95;2.80;;;29.60;87.50;;;;;;5065029;28;20028;-54
2023/06/20 11:53:19;;;;;;;4.20;2.80;;;29.70;84.70;;;;;;5066378;28;20122;-56
2023/06/20 11:55:47;;;;;;;5.82;3.42;;;29.70;86.00;;;;;;5046404;28;20075;-51
2023/06/20 11:58:13;;;;;;;4.68;2.92;;;29.80;86.80;;;;;;5066784;28;20093;-50
2023/06/20 12:00:39;;;;;;;4.47;3.03;;;29.70;85.80;;;;;;5063127;28;20138;-51
2023/06/20 12:03:11;;;;;;;4.75;2.85;;;29.60;86.00;;;;;;5068408;28;20131;-51
2023/06/20 12:05:37;;;;;;;5.07;3.65;;;29.50;85.80;;;;;;5064796;28;20028;-54
2023/06/20 12:08:03;;;;;;;4.45;2.80;;;29.50;86.30;;;;;;5066583;28;20115;-49
2023/06/20 12:10:29;;;;;;;4.68;2.97;;;29.30;85.30;;;;;;5045959;28;20043;-54
2023/06/20 12:12:55;;;;;;;3.42;2.65;;;29.20;85.50;;;;;;5066218;28;20377;-55
2023/06/20 12:15:21;;;;;;;5.38;3.00;;;29.20;85.40;;;;;;5065052;28;20365;-54
2023/06/20 12:17:47;;;;;;;3.72;2.70;;;29.30;86.00;;;;;;5046414;28;20033;-52
2023/06/20 12:20:13;;;;;;;3.83;2.70;;;29.60;84.00;;;;;;5057127;28;20029;-52
2023/06/20 12:22:38;;;;;;;8.15;3.00;;;29.70;82.60;;;;;;5062239;28;20055;-54
2023/06/20 12:25:05;;;;;;;3.00;2.20;;;29.90;82.40;;;;;;5062474;28;20017;-51
2023/06/20 12:27:30;;;;;;;4.40;2.70;;;29.90;83.10;;;;;;5057042;28;20029;-50
2023/06/20 12:29:56;;;;;;;4.78;2.75;;;29.90;83.80;;;;;;5048124;28;20395;-52
2023/06/20 12:32:22;;;;;;;3.47;2.58;;;30.00;84.30;;;;;;5065111;28;20029;-52
2023/06/20 12:34:47;;;;;;;4.40;2.90;;;30.20;83.00;;;;;;5066090;28;20568;-50
2023/06/20 12:37:13;;;;;;;3.72;2.42;;;30.20;82.50;;;;;;5066561;28;20124;-53
2023/06/20 12:39:39;;;;;;;4.10;2.65;;;30.30;81.40;;;;;;5064147;28;20108;-52
2023/06/20 12:42:05;;;;;;;3.80;2.38;;;30.20;81.90;;;;;;5059087;28;20113;-53
2023/06/20 12:44:31;;;;;;;4.28;2.90;;;30.10;80.40;;;;;;5048155;28;20130;-55
2023/06/20 12:46:56;;;;;;;3.50;2.53;;;30.00;82.10;;;;;;5043068;28;20067;-51
2023/06/20 12:49:22;;;;;;;4.13;2.50;;;30.00;82.50;;;;;;5064008;28;20219;-52
2023/06/20 12:51:48;;;;;;;8.73;5.30;;;30.00;81.50;;;;;;5064937;28;20056;-51
2023/06/20 12:54:14;;;;;;;3.30;2.33;;;30.10;79.50;;;;;;5065084;28;20346;-53